Time;durP1;ratioP1;P1;durP2;ratioP2;P2;SDS_P1;SDS_P2;PMS_P1;PMS_P2;Temp;Humidity;BMP_temperature;BMP_pressure;BME280_temperature;BME280_humidity;BME280_pressure;Samples;Min_cycle;Max_cycle;Signal;HPM_P1;HPM_P2
2022/10/17 00:00:59;;;;;;;3.67;2.13;;;;;;;20.93;64.18;100725.13;5051332;28;20695;-70
2022/10/17 00:03:24;;;;;;;4.93;1.80;;;;;;;20.89;64.40;100721.41;5051143;28;20215;-70
2022/10/17 00:05:50;;;;;;;3.00;1.80;;;;;;;20.87;64.26;100720.91;5032843;28;20203;-70
2022/10/17 00:08:16;;;;;;;3.60;1.73;;;;;;;20.87;64.51;100728.69;5050735;28;20523;-70
2022/10/17 00:10:41;;;;;;;4.67;1.70;;;;;;;20.87;64.60;100731.56;5015473;28;20172;-70
2022/10/17 00:13:08;;;;;;;3.50;1.73;;;;;;;20.85;64.79;100733.97;5045177;28;20934;-70
2022/10/17 00:15:33;;;;;;;5.83;1.80;;;;;;;20.84;64.62;100738.91;5024032;28;20214;-70
2022/10/17 00:17:59;;;;;;;4.70;2.53;;;;;;;20.84;65.02;100736.03;4996757;28;20473;-69
2022/10/17 00:20:24;;;;;;;4.30;1.97;;;;;;;20.82;65.23;100738.44;5016616;28;20228;-70
2022/10/17 00:22:50;;;;;;;2.87;1.47;;;;;;;20.80;64.82;100729.41;5009292;28;20200;-70
2022/10/17 00:25:15;;;;;;;3.47;1.90;;;;;;;20.81;64.81;100733.09;4993650;28;20569;-70
2022/10/17 00:27:41;;;;;;;4.60;1.83;;;;;;;20.83;64.83;100734.38;4977239;28;20165;-69
2022/10/17 00:30:09;;;;;;;5.73;1.70;;;;;;;20.79;65.47;100733.50;5011756;28;20637;-70
2022/10/17 00:32:34;;;;;;;4.47;1.90;;;;;;;20.79;65.42;100741.28;4994589;28;20249;-70
2022/10/17 00:35:00;;;;;;;3.07;1.63;;;;;;;20.79;65.27;100747.00;5011766;28;20408;-69
2022/10/17 00:37:25;;;;;;;3.10;1.33;;;;;;;20.77;65.48;100744.53;5010468;28;20582;-70
2022/10/17 00:39:51;;;;;;;4.67;1.50;;;;;;;20.77;65.26;100750.25;5011926;28;20185;-70
2022/10/17 00:42:16;;;;;;;3.50;1.80;;;;;;;20.76;65.41;100751.47;4994071;28;20308;-70
2022/10/17 00:44:46;;;;;;;4.10;1.77;;;;;;;20.77;65.36;100753.13;5010147;28;20706;-70
2022/10/17 00:47:14;;;;;;;8.40;1.60;;;;;;;20.77;65.68;100752.31;5010621;28;20173;-70
2022/10/17 00:49:39;;;;;;;3.10;1.57;;;;;;;20.76;65.61;100750.63;5010638;28;20416;-70
2022/10/17 00:52:07;;;;;;;3.40;1.50;;;;;;;20.75;65.71;100744.09;4994025;28;20420;-70
2022/10/17 00:54:35;;;;;;;2.20;1.30;;;;;;;20.74;65.50;100745.31;5010022;28;20200;-70
2022/10/17 00:57:00;;;;;;;6.43;1.57;;;;;;;20.75;65.65;100749.84;5010326;28;20432;-70
2022/10/17 00:59:26;;;;;;;6.60;1.70;;;;;;;20.74;65.94;100756.78;5010150;28;20420;-70
2022/10/17 01:02:07;;;;;;;7.40;1.83;;;;;;;20.74;65.90;100761.69;5011135;28;20188;-70
2022/10/17 01:04:32;;;;;;;2.87;1.80;;;;;;;20.72;66.04;100749.78;5011084;28;20292;-69
2022/10/17 01:06:58;;;;;;;3.73;1.70;;;;;;;20.72;65.77;100764.94;5010179;28;20431;-70
2022/10/17 01:09:24;;;;;;;4.90;1.67;;;;;;;20.73;66.06;100757.97;5010965;28;20215;-70
2022/10/17 01:12:28;;;;;;;2.53;1.50;;;;;;;20.72;65.95;100764.94;4977964;28;20177;-70
2022/10/17 01:15:06;;;;;;;4.40;1.80;;;;;;;20.70;66.03;100770.25;5011332;28;20157;-70
2022/10/17 01:18:09;;;;;;;3.27;1.70;;;;;;;20.70;66.11;100761.63;5018506;28;20478;-70
2022/10/17 01:20:44;;;;;;;3.43;1.43;;;;;;;20.70;66.13;100770.25;4986555;28;20424;-71
2022/10/17 01:23:34;;;;;;;4.80;1.73;;;;;;;20.69;66.06;100764.88;5040351;28;20457;-70
2022/10/17 01:26:15;;;;;;;3.63;1.97;;;;;;;20.68;66.32;100766.91;5049214;28;20410;-70
2022/10/17 01:29:21;;;;;;;4.50;1.63;;;;;;;20.68;66.17;100766.09;5030975;28;20432;-70
2022/10/17 01:32:01;;;;;;;3.87;1.87;;;;;;;20.67;66.41;100765.25;5048396;28;20497;-70
2022/10/17 01:34:52;;;;;;;3.63;1.50;;;;;;;20.67;66.33;100755.84;5016314;28;20923;-70
2022/10/17 01:37:25;;;;;;;2.93;1.67;;;;;;;20.68;66.33;100757.50;5033861;28;20774;-69
2022/10/17 01:39:52;;;;;;;5.60;1.50;;;;;;;20.68;66.12;100751.75;5016786;28;20431;-70
2022/10/17 01:42:32;;;;;;;4.70;1.73;;;;;;;20.66;66.23;100755.00;5030568;28;20463;-70
2022/10/17 01:45:20;;;;;;;3.03;1.50;;;;;;;20.67;66.36;100765.25;5029895;28;20495;-70
2022/10/17 01:47:46;;;;;;;4.00;1.80;;;;;;;20.66;66.41;100760.75;5014470;28;20422;-70
2022/10/17 01:50:45;;;;;;;3.53;1.83;;;;;;;20.66;66.28;100759.91;5000726;28;20449;-70
2022/10/17 01:53:13;;;;;;;5.30;1.87;;;;;;;20.66;66.54;100759.91;4984890;28;20431;-70
2022/10/17 01:55:40;;;;;;;2.90;1.53;;;;;;;20.65;66.33;100753.34;5016668;28;20565;-70
2022/10/17 01:58:08;;;;;;;3.13;1.60;;;;;;;20.65;66.51;100761.97;5016550;28;20856;-70
2022/10/17 02:00:34;;;;;;;2.50;1.70;;;;;;;20.66;66.12;100760.75;5016936;28;20411;-70
2022/10/17 02:03:03;;;;;;;5.00;1.50;;;;;;;20.65;66.36;100759.09;5036396;28;20480;-70
2022/10/17 02:05:31;;;;;;;3.50;1.70;;;;;;;20.65;66.67;100758.25;5020368;28;20199;-70
2022/10/17 02:07:56;;;;;;;4.03;1.47;;;;;;;20.65;66.48;100759.09;5036469;28;20493;-70
2022/10/17 02:10:46;;;;;;;4.80;1.60;;;;;;;20.65;66.39;100753.34;5054454;28;20896;-70
2022/10/17 02:13:48;;;;;;;2.67;1.60;;;;;;;20.66;66.26;100755.00;5012199;28;20180;-70
2022/10/17 02:16:32;;;;;;;2.40;1.40;;;;;;;20.64;66.58;100757.44;5053950;28;20390;-70
2022/10/17 02:19:16;;;;;;;2.27;1.57;;;;;;;20.65;66.60;100759.09;5054150;28;20488;-70
2022/10/17 02:22:00;;;;;;;3.10;1.63;;;;;;;20.64;66.51;100754.56;5036073;28;20820;-70
2022/10/17 02:24:46;;;;;;;5.60;1.70;;;;;;;20.64;66.44;100745.13;5053928;28;20409;-70
2022/10/17 02:27:19;;;;;;;3.17;2.07;;;;;;;20.63;66.56;100743.47;5036051;28;20449;-70
2022/10/17 02:29:49;;;;;;;2.30;1.40;;;;;;;20.63;66.75;100746.34;5019274;28;20425;-70
2022/10/17 02:32:24;;;;;;;2.63;1.60;;;;;;;20.63;66.13;100747.16;5019260;28;20449;-71
2022/10/17 02:34:51;;;;;;;3.40;1.70;;;;;;;20.63;66.41;100755.75;5019151;28;20452;-70
2022/10/17 02:37:18;;;;;;;2.23;1.63;;;;;;;20.63;66.41;100752.88;5019743;28;20441;-70
2022/10/17 02:39:43;;;;;;;2.90;1.57;;;;;;;20.64;66.47;100762.34;5036023;28;20925;-70
2022/10/17 02:42:10;;;;;;;3.60;1.97;;;;;;;20.63;66.34;100763.56;5035923;28;20564;-70
2022/10/17 02:44:36;;;;;;;1.93;1.20;;;;;;;20.63;66.42;100752.88;5035757;28;20701;-71
2022/10/17 02:47:31;;;;;;;2.73;1.60;;;;;;;20.63;66.52;100754.94;5052609;28;20414;-70
2022/10/17 02:49:57;;;;;;;3.73;1.40;;;;;;;20.63;66.81;100763.56;5028661;28;20434;-70
2022/10/17 02:52:38;;;;;;;2.73;1.50;;;;;;;20.63;66.40;100766.44;5035015;28;20444;-71
2022/10/17 02:55:09;;;;;;;2.27;1.40;;;;;;;20.62;66.47;100765.59;5053610;28;20977;-70
2022/10/17 02:57:36;;;;;;;2.27;1.20;;;;;;;20.62;66.58;100754.09;5052510;28;20410;-70
2022/10/17 03:00:04;;;;;;;3.20;1.63;;;;;;;20.61;66.78;100763.94;5035513;28;20417;-71
2022/10/17 03:02:38;;;;;;;2.97;1.53;;;;;;;20.63;66.57;100757.81;5035348;28;20456;-71
2022/10/17 03:05:03;;;;;;;2.60;1.37;;;;;;;20.63;66.39;100761.50;5015414;28;20439;-71
2022/10/17 03:07:29;;;;;;;3.10;1.50;;;;;;;20.62;66.70;100747.56;5050255;28;20457;-70
2022/10/17 03:09:54;;;;;;;4.30;1.90;;;;;;;20.62;66.52;100759.84;5017241;28;20651;-70
2022/10/17 03:12:20;;;;;;;2.70;1.43;;;;;;;20.61;66.61;100761.06;5017607;28;20176;-70
2022/10/17 03:14:45;;;;;;;5.00;1.70;;;;;;;20.62;66.52;100771.31;5052193;28;20171;-70
2022/10/17 03:17:10;;;;;;;3.50;1.40;;;;;;;20.62;66.40;100774.19;5017494;28;20176;-71
2022/10/17 03:19:36;;;;;;;2.70;1.43;;;;;;;20.61;66.71;100765.97;5051613;28;20172;-70
2022/10/17 03:22:01;;;;;;;2.13;1.30;;;;;;;20.61;66.41;100775.41;5034311;28;20175;-70
2022/10/17 03:24:27;;;;;;;2.57;1.43;;;;;;;20.60;66.67;100773.75;5018545;28;20172;-70
2022/10/17 03:26:52;;;;;;;3.73;1.43;;;;;;;20.60;66.80;100776.63;5052724;28;20168;-70
2022/10/17 03:29:18;;;;;;;2.27;1.43;;;;;;;20.61;66.52;100778.28;5034804;28;20206;-70
2022/10/17 03:31:43;;;;;;;5.10;1.70;;;;;;;20.61;66.76;100774.56;5034919;28;20199;-70
2022/10/17 03:34:08;;;;;;;3.27;1.23;;;;;;;20.61;66.43;100774.56;5052907;28;20829;-71
2022/10/17 03:36:34;;;;;;;1.90;1.03;;;;;;;20.61;66.59;100774.56;5052914;28;20673;-70
2022/10/17 03:38:59;;;;;;;2.43;1.50;;;;;;;20.60;66.73;100776.63;5034839;28;20156;-70
2022/10/17 03:41:25;;;;;;;2.00;1.27;;;;;;;20.61;66.56;100783.19;5051661;28;20176;-71
2022/10/17 03:43:52;;;;;;;2.83;1.57;;;;;;;20.62;66.47;100787.72;5051113;28;20199;-70
2022/10/17 03:46:17;;;;;;;2.90;1.60;;;;;;;20.61;66.41;100786.88;5034473;28;20321;-70
2022/10/17 03:48:43;;;;;;;3.00;1.50;;;;;;;20.60;66.79;100782.38;5034411;28;20862;-70
2022/10/17 03:51:08;;;;;;;3.77;1.53;;;;;;;20.60;66.56;100793.84;5052677;28;20160;-71
2022/10/17 03:53:34;;;;;;;2.43;1.53;;;;;;;20.61;66.65;100797.53;5034773;28;20152;-71
2022/10/17 03:56:16;;;;;;;2.23;1.27;;;;;;;20.61;66.44;100795.50;5018221;28;20180;-70
2022/10/17 03:58:41;;;;;;;1.77;1.13;;;;;;;20.60;66.65;100790.97;5034094;28;20249;-70
2022/10/17 04:01:08;;;;;;;2.90;1.70;;;;;;;20.60;66.51;100796.72;5014250;28;20419;-70
2022/10/17 04:03:33;;;;;;;3.70;1.57;;;;;;;20.60;66.80;100804.47;5024978;28;20208;-71
2022/10/17 04:05:59;;;;;;;2.80;1.60;;;;;;;20.60;66.62;100801.59;5034238;28;20410;-70
2022/10/17 04:08:25;;;;;;;2.00;1.10;;;;;;;20.59;66.84;100809.41;5017835;28;20800;-70
2022/10/17 04:10:51;;;;;;;2.57;1.10;;;;;;;20.61;66.65;100811.88;5033553;28;20422;-70
2022/10/17 04:13:16;;;;;;;3.27;1.50;;;;;;;20.61;66.91;100817.59;5034379;28;20170;-70
2022/10/17 04:15:42;;;;;;;1.70;1.10;;;;;;;20.60;66.81;100819.66;5034127;28;20175;-70
2022/10/17 04:18:07;;;;;;;2.40;1.20;;;;;;;20.61;66.64;100818.44;5033907;28;20238;-70
2022/10/17 04:20:36;;;;;;;2.40;1.20;;;;;;;20.61;66.90;100812.72;5051938;28;20164;-70
2022/10/17 04:23:01;;;;;;;3.03;1.33;;;;;;;20.59;66.83;100812.28;5051496;28;20188;-71
2022/10/17 04:25:26;;;;;;;3.70;1.20;;;;;;;20.59;66.61;100815.16;5017373;28;20450;-70
2022/10/17 04:27:52;;;;;;;2.10;1.40;;;;;;;20.60;66.85;100815.94;5001249;28;20176;-70
2022/10/17 04:30:17;;;;;;;1.87;1.17;;;;;;;20.60;66.95;100813.09;5017332;28;20176;-70
2022/10/17 04:32:43;;;;;;;2.23;1.40;;;;;;;20.59;66.78;100815.16;5034076;28;20152;-71
2022/10/17 04:35:08;;;;;;;2.50;1.23;;;;;;;20.60;66.93;100815.94;5016965;28;20175;-70
2022/10/17 04:37:34;;;;;;;4.03;1.80;;;;;;;20.61;66.59;100820.47;5033635;28;20187;-70
2022/10/17 04:39:59;;;;;;;1.80;1.00;;;;;;;20.59;67.04;100835.22;5051299;28;20175;-71
2022/10/17 04:42:24;;;;;;;4.73;1.20;;;;;;;20.60;66.72;100839.75;5030338;28;20204;-70
2022/10/17 04:44:50;;;;;;;2.07;1.27;;;;;;;20.61;67.04;100838.53;5033264;28;20555;-70
2022/10/17 04:47:15;;;;;;;1.90;1.20;;;;;;;20.62;66.84;100842.25;5032769;28;20164;-71
2022/10/17 04:49:41;;;;;;;2.77;1.47;;;;;;;20.62;66.44;100845.09;5032203;28;20172;-70
2022/10/17 04:52:06;;;;;;;2.00;1.40;;;;;;;20.60;66.91;100831.13;5032274;28;20215;-70
2022/10/17 04:54:31;;;;;;;1.90;1.10;;;;;;;20.60;66.71;100825.41;5031358;28;20168;-71
2022/10/17 04:56:57;;;;;;;3.13;1.60;;;;;;;20.59;66.44;100829.50;5027050;28;20178;-71
2022/10/17 04:59:22;;;;;;;3.93;1.43;;;;;;;20.60;66.51;100831.13;5050588;28;20187;-71
2022/10/17 05:01:48;;;;;;;2.00;1.10;;;;;;;20.61;66.81;100827.06;5051212;28;20182;-70
2022/10/17 05:04:13;;;;;;;1.90;1.10;;;;;;;20.62;66.78;100831.56;5051040;28;20199;-71
2022/10/17 05:06:39;;;;;;;2.30;1.30;;;;;;;20.61;66.80;100832.78;5032974;28;20538;-70
2022/10/17 05:09:04;;;;;;;2.20;1.10;;;;;;;20.61;66.84;100832.78;5032926;28;20592;-71
2022/10/17 05:11:30;;;;;;;2.60;1.50;;;;;;;20.63;66.76;100836.09;5009325;28;20186;-71
2022/10/17 05:13:57;;;;;;;4.10;2.20;;;;;;;20.45;61.30;100834.97;5021947;28;20176;-71
2022/10/17 05:16:22;;;;;;;17.43;3.73;;;;;;;20.29;61.72;100839.13;5028605;28;20183;-70
2022/10/17 05:18:49;;;;;;;7.47;3.60;;;;;;;20.45;62.66;100832.09;5013724;28;20475;-71
2022/10/17 05:21:15;;;;;;;7.80;5.10;;;;;;;20.41;59.63;100836.91;5009501;28;20203;-71
2022/10/17 05:23:41;;;;;;;11.07;4.80;;;;;;;20.44;60.89;100850.50;4989901;28;20480;-70
2022/10/17 05:26:06;;;;;;;7.27;4.07;;;;;;;20.49;59.90;100840.75;5005253;28;20285;-71
2022/10/17 05:28:33;;;;;;;7.57;3.50;;;;;;;20.57;60.88;100842.56;4996364;28;20185;-70
2022/10/17 05:31:04;;;;;;;7.27;3.73;;;;;;;20.60;60.90;100851.22;5025475;28;20223;-73
2022/10/17 05:33:29;;;;;;;6.27;3.40;;;;;;;20.62;60.42;100833.63;5010829;28;20420;-70
2022/10/17 05:35:55;;;;;;;7.73;3.43;;;;;;;20.65;60.40;100841.44;4993438;28;20436;-70
2022/10/17 05:38:20;;;;;;;7.00;3.40;;;;;;;20.65;60.50;100845.16;5011284;28;20172;-71
2022/10/17 05:40:46;;;;;;;13.30;3.57;;;;;;;20.67;60.83;100853.41;5012806;28;20192;-71
2022/10/17 05:43:11;;;;;;;4.97;3.17;;;;;;;20.69;60.90;100857.53;5010700;28;20204;-71
2022/10/17 05:45:37;;;;;;;8.70;3.60;;;;;;;20.69;61.09;100857.53;5011806;28;20184;-71
2022/10/17 05:48:02;;;;;;;4.90;3.47;;;;;;;20.73;61.07;100863.34;5011123;28;20542;-71
2022/10/17 05:50:28;;;;;;;8.53;4.07;;;;;;;20.72;61.26;100855.94;5010474;28;20172;-71
2022/10/17 05:52:54;;;;;;;9.13;3.23;;;;;;;20.73;61.13;100858.41;4994541;28;20536;-71
2022/10/17 05:55:19;;;;;;;5.60;3.73;;;;;;;20.97;62.07;100857.25;4979027;28;20177;-72
2022/10/17 05:57:45;;;;;;;4.77;3.43;;;;;;;21.08;62.57;100859.06;5002915;28;20284;-71
2022/10/17 06:00:11;;;;;;;5.50;3.03;;;;;;;21.06;61.46;100867.25;5008547;28;20170;-71
2022/10/17 06:02:36;;;;;;;5.20;3.00;;;;;;;21.03;61.62;100879.47;4990063;28;20681;-71
2022/10/17 06:05:02;;;;;;;10.97;3.73;;;;;;;21.00;61.79;100863.03;5006952;28;20454;-70
2022/10/17 06:07:27;;;;;;;6.20;3.03;;;;;;;20.94;62.53;100881.81;5010679;28;20203;-72
2022/10/17 06:09:53;;;;;;;7.07;2.93;;;;;;;20.91;62.68;100873.94;4993313;28;20169;-72
2022/10/17 06:12:18;;;;;;;6.90;3.10;;;;;;;20.91;62.70;100888.31;5008229;28;20181;-70
2022/10/17 06:14:43;;;;;;;11.70;2.83;;;;;;;20.84;62.72;100881.56;4992322;28;20161;-70
2022/10/17 06:17:09;;;;;;;6.83;3.00;;;;;;;20.81;62.56;100879.47;4993001;28;20284;-70
2022/10/17 06:19:35;;;;;;;6.17;2.70;;;;;;;20.81;63.22;100882.31;5036793;28;20197;-72
2022/10/17 06:22:01;;;;;;;5.23;2.93;;;;;;;20.80;62.24;100883.53;5046589;28;20191;-70
2022/10/17 06:24:26;;;;;;;7.70;3.10;;;;;;;20.79;62.59;100902.81;5030836;28;20441;-70
2022/10/17 06:26:51;;;;;;;4.13;2.80;;;;;;;20.77;62.29;100905.22;5042389;28;20275;-70
2022/10/17 06:29:17;;;;;;;3.50;2.17;;;;;;;20.75;62.25;100907.66;5041941;28;20207;-70
2022/10/17 06:31:43;;;;;;;8.23;2.67;;;;;;;20.74;62.53;100911.75;5047747;28;20538;-70
2022/10/17 06:34:08;;;;;;;4.03;2.43;;;;;;;20.74;62.81;100910.91;5013581;28;20176;-71
2022/10/17 06:36:33;;;;;;;10.93;2.70;;;;;;;20.73;63.45;100903.50;5038211;28;20191;-71
2022/10/17 06:38:59;;;;;;;7.33;3.00;;;;;;;20.72;63.53;100905.53;5041653;28;20188;-70
2022/10/17 06:41:25;;;;;;;5.90;2.50;;;;;;;20.74;63.30;100916.66;5026205;28;20183;-70
2022/10/17 06:43:50;;;;;;;7.77;3.10;;;;;;;20.74;63.41;100917.50;5041799;28;20219;-69
2022/10/17 06:46:16;;;;;;;4.97;2.67;;;;;;;20.73;63.37;100921.53;5031220;28;20184;-71
2022/10/17 06:48:42;;;;;;;5.07;2.80;;;;;;;20.72;63.64;100922.75;5037523;28;20646;-71
2022/10/17 06:51:10;;;;;;;7.73;2.70;;;;;;;20.73;63.71;100926.47;5043421;28;20426;-69
2022/10/17 06:53:36;;;;;;;6.20;3.07;;;;;;;20.71;63.95;100937.47;5018615;28;21849;-71
2022/10/17 06:56:03;;;;;;;6.20;2.40;;;;;;;20.72;63.99;100937.09;5022103;28;20430;-70
2022/10/17 06:58:34;;;;;;;4.87;2.40;;;;;;;20.72;63.90;100928.50;5012273;28;20432;-70
2022/10/17 07:01:08;;;;;;;3.80;2.33;;;;;;;20.73;63.67;100933.03;5012835;28;20464;-70
2022/10/17 07:03:35;;;;;;;7.63;3.17;;;;;;;20.73;63.72;100944.50;5022589;28;20466;-71
2022/10/17 07:06:00;;;;;;;5.40;2.43;;;;;;;20.74;63.82;100943.31;5036008;28;20433;-70
2022/10/17 07:08:26;;;;;;;3.87;2.63;;;;;;;20.74;64.04;100951.06;5017058;28;20434;-70
2022/10/17 07:10:51;;;;;;;6.30;2.57;;;;;;;20.75;63.78;100952.72;5024022;28;20242;-70
2022/10/17 07:13:17;;;;;;;7.57;2.60;;;;;;;20.74;64.15;100951.91;5007423;28;20184;-71
2022/10/17 07:15:43;;;;;;;3.83;2.47;;;;;;;20.74;64.13;100954.78;5033701;28;20188;-70
2022/10/17 07:18:08;;;;;;;6.50;3.00;;;;;;;20.75;64.11;100953.56;5040054;28;20474;-70
2022/10/17 07:20:34;;;;;;;3.73;2.40;;;;;;;20.75;64.06;100961.34;5025177;28;20601;-71
2022/10/17 07:22:59;;;;;;;3.33;2.23;;;;;;;20.73;64.33;100961.72;5018571;28;20196;-71
2022/10/17 07:25:24;;;;;;;5.60;2.70;;;;;;;20.72;64.45;100965.00;5034895;28;20188;-70
2022/10/17 07:27:50;;;;;;;4.43;2.60;;;;;;;20.72;64.46;100962.94;5028335;28;20191;-70
2022/10/17 07:30:16;;;;;;;3.40;2.40;;;;;;;20.74;64.20;100969.13;5009512;28;20659;-70
2022/10/17 07:32:42;;;;;;;5.27;2.30;;;;;;;20.72;64.62;100968.66;5020970;28;20422;-69
2022/10/17 07:35:08;;;;;;;3.17;2.27;;;;;;;20.73;64.31;100975.25;5019896;28;20200;-71
2022/10/17 07:37:33;;;;;;;13.03;2.60;;;;;;;20.73;64.33;100973.19;5034576;28;20179;-70
2022/10/17 07:39:58;;;;;;;5.93;2.40;;;;;;;20.73;64.80;100969.50;5030144;28;20233;-70
2022/10/17 07:42:24;;;;;;;4.10;2.30;;;;;;;20.73;64.28;100984.69;5002603;28;20203;-70
2022/10/17 07:44:50;;;;;;;3.00;1.77;;;;;;;20.73;64.65;100987.53;5017751;28;20196;-70
2022/10/17 07:47:15;;;;;;;5.00;2.70;;;;;;;20.73;64.82;100989.59;5020543;28;20186;-70
2022/10/17 07:49:42;;;;;;;3.60;1.80;;;;;;;20.73;64.72;100993.28;5036406;28;20180;-70
2022/10/17 07:52:11;;;;;;;3.53;2.27;;;;;;;20.72;64.97;100988.75;5019046;28;20703;-70
2022/10/17 07:54:37;;;;;;;3.50;1.97;;;;;;;20.72;64.85;100985.06;5035546;28;21389;-70
2022/10/17 07:57:02;;;;;;;3.73;2.30;;;;;;;20.74;64.96;100989.22;5027841;28;20437;-70
2022/10/17 07:59:28;;;;;;;5.07;2.23;;;;;;;20.75;64.82;100999.50;5027145;28;20270;-70
2022/10/17 08:01:56;;;;;;;3.07;1.90;;;;;;;20.74;65.10;100991.25;5019410;28;20194;-70
2022/10/17 08:04:22;;;;;;;3.47;2.00;;;;;;;20.73;64.99;101001.06;5025784;28;20659;-70
2022/10/17 08:06:48;;;;;;;5.40;2.60;;;;;;;20.73;64.77;100993.28;5018749;28;20438;-70
2022/10/17 08:09:13;;;;;;;4.00;2.43;;;;;;;20.71;64.85;100998.59;5033824;28;20179;-70
2022/10/17 08:11:39;;;;;;;6.20;3.23;;;;;;;20.71;64.98;100992.00;5036237;28;20596;-70
2022/10/17 08:14:04;;;;;;;3.10;2.00;;;;;;;20.73;65.10;100984.69;5018203;28;20187;-70
2022/10/17 08:16:30;;;;;;;3.40;1.73;;;;;;;20.73;65.28;100992.47;5036814;28;20207;-71
2022/10/17 08:18:55;;;;;;;4.20;2.30;;;;;;;20.75;64.89;100993.75;5001237;28;20225;-70
2022/10/17 08:21:21;;;;;;;3.50;2.13;;;;;;;20.74;64.98;101002.72;4986250;28;20232;-70
2022/10/17 08:23:46;;;;;;;2.63;1.70;;;;;;;20.74;64.89;101000.72;4995955;28;20220;-71
2022/10/17 08:26:12;;;;;;;3.83;2.10;;;;;;;20.74;64.65;101003.56;4996802;28;20189;-71
2022/10/17 08:28:38;;;;;;;3.97;2.57;;;;;;;20.74;65.22;101008.47;4993405;28;20185;-71
2022/10/17 08:31:04;;;;;;;2.67;2.00;;;;;;;20.73;65.09;101010.50;4994545;28;20185;-71
2022/10/17 08:33:29;;;;;;;4.33;2.00;;;;;;;20.74;65.10;101009.31;4995317;28;20432;-70
2022/10/17 08:35:57;;;;;;;3.10;2.00;;;;;;;20.73;64.89;101016.25;4970667;28;20223;-69
2022/10/17 08:38:23;;;;;;;3.40;2.23;;;;;;;20.76;64.77;101023.25;4998400;28;20704;-70
2022/10/17 08:40:48;;;;;;;4.27;2.67;;;;;;;20.74;65.05;101019.94;4992964;28;20437;-69
2022/10/17 08:43:41;;;;;;;2.57;1.60;;;;;;;20.76;65.31;101011.78;4994844;28;20205;-70
2022/10/17 08:46:07;;;;;;;3.70;2.13;;;;;;;20.76;65.04;101012.63;4996739;28;20267;-70
2022/10/17 08:48:39;;;;;;;4.17;2.40;;;;;;;20.75;65.38;101007.25;4978075;28;21365;-70
2022/10/17 08:51:20;;;;;;;2.83;1.80;;;;;;;20.76;65.42;101023.25;4986676;28;20637;-70
2022/10/17 08:54:00;;;;;;;3.70;2.30;;;;;;;20.76;65.31;101017.53;4993906;28;20430;-71
2022/10/17 08:56:29;;;;;;;4.00;2.10;;;;;;;20.76;65.20;101012.63;5001703;28;20428;-70
2022/10/17 08:58:54;;;;;;;3.87;2.03;;;;;;;20.76;65.11;101012.63;4995384;28;20485;-71
2022/10/17 09:01:26;;;;;;;2.80;1.93;;;;;;;20.77;65.40;101011.41;4999142;28;20891;-70
2022/10/17 09:04:26;;;;;;;2.83;1.90;;;;;;;20.74;65.39;101006.44;5011197;28;20283;-69
2022/10/17 09:06:57;;;;;;;3.23;1.77;;;;;;;20.76;65.37;101018.38;4999269;28;20422;-71
2022/10/17 09:09:44;;;;;;;3.10;1.70;;;;;;;20.76;65.47;101026.13;4992789;28;20432;-69
2022/10/17 09:12:18;;;;;;;2.57;1.67;;;;;;;20.77;65.42;101024.94;4993551;28;20422;-69
2022/10/17 09:15:04;;;;;;;3.87;1.70;;;;;;;20.78;65.05;101012.25;4994436;28;20444;-69
2022/10/17 09:17:37;;;;;;;4.67;2.13;;;;;;;20.77;65.03;101013.47;5002355;28;20557;-70
2022/10/17 09:20:28;;;;;;;3.10;1.93;;;;;;;20.79;65.18;101019.66;5026813;28;20414;-69
2022/10/17 09:23:03;;;;;;;4.10;1.97;;;;;;;20.75;65.26;101016.72;5033875;28;20459;-70
2022/10/17 09:25:28;;;;;;;3.17;2.00;;;;;;;20.79;65.02;101016.78;5018350;28;20472;-70
2022/10/17 09:28:09;;;;;;;3.10;2.00;;;;;;;20.75;65.59;101016.72;5015280;28;20430;-71
2022/10/17 09:31:15;;;;;;;3.40;2.50;;;;;;;20.77;65.44;101019.22;5035070;28;20210;-70
2022/10/17 09:33:44;;;;;;;3.77;2.20;;;;;;;20.78;65.35;101015.13;5008361;28;20434;-69
2022/10/17 09:36:12;;;;;;;3.53;1.90;;;;;;;20.78;65.03;101023.72;5032490;28;20526;-71
2022/10/17 09:38:52;;;;;;;2.20;1.90;;;;;;;20.76;65.81;101024.09;5008654;28;20832;-69
2022/10/17 09:41:42;;;;;;;3.50;1.90;;;;;;;20.80;65.80;101024.16;5033503;28;20427;-70
2022/10/17 09:44:19;;;;;;;2.90;1.70;;;;;;;20.79;65.39;101026.22;5032565;28;20475;-70
2022/10/17 09:46:51;;;;;;;3.13;1.90;;;;;;;20.79;65.68;101022.53;5018384;28;20433;-70
2022/10/17 09:49:17;;;;;;;4.63;2.10;;;;;;;20.79;65.56;101008.16;5031474;28;20431;-69
2022/10/17 09:51:43;;;;;;;3.00;2.07;;;;;;;20.79;65.69;101011.88;5032034;28;20736;-69
2022/10/17 09:54:21;;;;;;;3.50;1.83;;;;;;;20.79;65.79;100991.78;5019399;28;20422;-70
2022/10/17 09:57:00;;;;;;;2.90;1.80;;;;;;;20.79;65.41;101008.16;5017592;28;20705;-69
2022/10/17 09:59:43;;;;;;;4.80;1.67;;;;;;;20.81;65.28;101011.47;5015115;28;20437;-70
2022/10/17 10:02:13;;;;;;;2.80;1.73;;;;;;;20.78;65.81;101018.81;5025404;28;20418;-69
2022/10/17 10:04:50;;;;;;;2.77;1.73;;;;;;;20.79;65.63;101023.34;5032432;28;20558;-69
2022/10/17 10:07:17;;;;;;;3.37;1.80;;;;;;;20.79;65.80;101023.34;5032203;28;20479;-69
2022/10/17 10:09:45;;;;;;;3.47;2.13;;;;;;;20.80;65.80;101032.78;5019246;28;20999;-70
2022/10/17 10:12:20;;;;;;;3.03;1.67;;;;;;;20.81;65.37;101031.56;5026804;28;20418;-70
2022/10/17 10:14:46;;;;;;;3.00;1.73;;;;;;;20.78;65.82;101027.41;5037194;28;20442;-71
2022/10/17 10:17:43;;;;;;;4.50;2.10;;;;;;;20.79;65.60;101034.84;5017895;28;20434;-70
2022/10/17 10:20:30;;;;;;;3.53;1.83;;;;;;;20.80;65.70;101036.50;5035556;28;20226;-70
2022/10/17 10:23:21;;;;;;;6.10;1.90;;;;;;;20.84;65.66;101039.44;5029832;28;20470;-70
2022/10/17 10:26:01;;;;;;;2.30;1.70;;;;;;;20.84;65.56;101040.28;5033793;28;20419;-70
2022/10/17 10:28:32;;;;;;;3.00;1.60;;;;;;;20.86;65.77;101039.88;5029641;28;20430;-70
2022/10/17 10:31:05;;;;;;;3.27;1.67;;;;;;;20.83;65.66;101044.31;5020042;28;20515;-70
2022/10/17 10:33:32;;;;;;;2.73;1.60;;;;;;;20.85;65.59;101041.09;5020927;28;20431;-70
2022/10/17 10:36:00;;;;;;;4.20;1.90;;;;;;;20.85;65.25;101046.81;5034205;28;20435;-70
2022/10/17 10:38:26;;;;;;;3.30;1.80;;;;;;;20.83;65.85;101038.59;5016831;28;20456;-70
2022/10/17 10:40:56;;;;;;;2.83;1.70;;;;;;;20.85;65.89;101043.94;5009530;28;20435;-70
2022/10/17 10:43:33;;;;;;;3.33;1.87;;;;;;;20.89;65.36;101039.13;5018588;28;20208;-70
2022/10/17 10:45:58;;;;;;;4.87;2.10;;;;;;;20.86;65.61;101042.75;5002808;28;20424;-69
2022/10/17 10:48:29;;;;;;;3.07;2.23;;;;;;;20.87;65.41;101039.50;5027108;28;20423;-70
2022/10/17 10:51:14;;;;;;;2.53;1.67;;;;;;;20.87;65.67;101041.56;5019564;28;20183;-70
2022/10/17 10:53:50;;;;;;;2.97;1.63;;;;;;;20.87;65.49;101042.38;5026722;28;20537;-70
2022/10/17 10:56:25;;;;;;;4.00;2.03;;;;;;;20.89;65.65;101060.09;5036371;28;21217;-70
2022/10/17 10:59:17;;;;;;;2.73;1.80;;;;;;;20.89;65.47;101060.09;5018194;28;20426;-70
2022/10/17 11:01:57;;;;;;;2.60;1.73;;;;;;;20.90;65.34;101053.13;5017979;28;20419;-69
2022/10/17 11:04:28;;;;;;;3.90;2.00;;;;;;;20.89;65.72;101054.34;5033862;28;20509;-70
2022/10/17 11:06:59;;;;;;;2.63;1.73;;;;;;;20.86;65.57;101052.19;5018818;28;20545;-70
2022/10/17 11:09:39;;;;;;;2.80;1.80;;;;;;;20.89;65.50;101060.09;5029829;28;20714;-70
2022/10/17 11:12:09;;;;;;;2.47;1.50;;;;;;;20.89;65.83;101054.34;5017957;28;20437;-69
2022/10/17 11:15:17;;;;;;;3.57;1.70;;;;;;;20.90;65.57;101053.13;5019084;28;20431;-69
2022/10/17 11:17:55;;;;;;;3.10;1.63;;;;;;;20.91;65.34;101059.69;5000271;28;20878;-70
2022/10/17 11:20:33;;;;;;;3.07;1.60;;;;;;;20.92;65.71;101055.63;4996218;28;20420;-70
2022/10/17 11:23:22;;;;;;;3.60;1.80;;;;;;;20.93;65.43;101060.16;4993969;28;20472;-69
2022/10/17 11:25:50;;;;;;;3.03;1.73;;;;;;;20.93;65.65;101054.41;4979251;28;20433;-69
2022/10/17 11:28:17;;;;;;;3.60;1.73;;;;;;;20.92;65.39;101052.75;4992621;28;20461;-69
2022/10/17 11:30:59;;;;;;;2.70;1.70;;;;;;;20.92;65.85;101058.50;4993040;28;20911;-69
2022/10/17 11:33:49;;;;;;;3.37;1.93;;;;;;;20.92;65.40;101059.31;4997997;28;20434;-69
2022/10/17 11:36:16;;;;;;;3.00;1.77;;;;;;;20.93;65.72;101055.22;4973602;28;20472;-69
2022/10/17 11:38:54;;;;;;;3.23;1.70;;;;;;;20.94;65.46;101054.03;4979600;28;20453;-69